sensor_id;sensor_type;location;lat;lon;timestamp;pressure;altitude;pressure_sealevel;temperature;humidity
52949;BME280;38812;50.942;3.644;2023-07-13T00:01:15;101473.75;;;15.08;100.00
52949;BME280;38812;50.942;3.644;2023-07-13T00:03:41;101462.34;;;15.06;100.00
52949;BME280;38812;50.942;3.644;2023-07-13T00:06:07;101473.75;;;15.08;100.00
52949;BME280;38812;50.942;3.644;2023-07-13T00:08:34;101473.13;;;14.98;100.00
52949;BME280;38812;50.942;3.644;2023-07-13T00:11:03;101455.13;;;14.82;100.00
52949;BME280;38812;50.942;3.644;2023-07-13T00:13:29;101477.75;;;14.92;100.00
52949;BME280;38812;50.942;3.644;2023-07-13T00:15:57;101462.75;;;14.92;100.00
52949;BME280;38812;50.942;3.644;2023-07-13T00:18:22;101476.78;;;14.94;100.00
52949;BME280;38812;50.942;3.644;2023-07-13T00:20:48;101462.16;;;14.83;100.00
52949;BME280;38812;50.942;3.644;2023-07-13T00:23:14;101465.78;;;14.79;100.00
52949;BME280;38812;50.942;3.644;2023-07-13T00:25:39;101479.09;;;14.75;100.00
52949;BME280;38812;50.942;3.644;2023-07-13T00:28:05;101483.75;;;14.67;100.00
52949;BME280;38812;50.942;3.644;2023-07-13T00:30:30;101475.94;;;14.63;100.00
52949;BME280;38812;50.942;3.644;2023-07-13T00:32:55;101476.19;;;14.54;100.00
52949;BME280;38812;50.942;3.644;2023-07-13T00:35:21;101478.53;;;14.64;100.00
52949;BME280;38812;50.942;3.644;2023-07-13T00:37:46;101478.78;;;14.55;100.00
52949;BME280;38812;50.942;3.644;2023-07-13T00:40:13;101466.53;;;14.51;100.00
52949;BME280;38812;50.942;3.644;2023-07-13T00:42:40;101482.25;;;14.57;100.00
52949;BME280;38812;50.942;3.644;2023-07-13T00:47:38;101469.16;;;14.53;100.00
52949;BME280;38812;50.942;3.644;2023-07-13T00:50:07;101486.72;;;14.55;100.00
52949;BME280;38812;50.942;3.644;2023-07-13T00:52:35;101473.72;;;14.48;100.00
52949;BME280;38812;50.942;3.644;2023-07-13T00:55:02;101484.97;;;14.54;100.00
52949;BME280;38812;50.942;3.644;2023-07-13T00:57:28;101465.91;;;14.43;100.00
52949;BME280;38812;50.942;3.644;2023-07-13T00:59:58;101481.53;;;14.51;100.00
52949;BME280;38812;50.942;3.644;2023-07-13T01:02:25;101481.72;;;14.45;100.00
52949;BME280;38812;50.942;3.644;2023-07-13T01:04:51;101482.69;;;14.42;100.00
52949;BME280;38812;50.942;3.644;2023-07-13T01:07:18;101471.47;;;14.31;100.00
52949;BME280;38812;50.942;3.644;2023-07-13T01:09:44;101472.38;;;14.30;100.00
52949;BME280;38812;50.942;3.644;2023-07-13T01:12:10;101471.34;;;14.35;100.00
52949;BME280;38812;50.942;3.644;2023-07-13T01:14:36;101494.16;;;14.41;100.00
52949;BME280;38812;50.942;3.644;2023-07-13T01:17:02;101500.31;;;14.40;100.00
52949;BME280;38812;50.942;3.644;2023-07-13T01:22:11;101482.91;;;14.31;100.00
52949;BME280;38812;50.942;3.644;2023-07-13T01:24:39;101482.78;;;14.36;100.00
52949;BME280;38812;50.942;3.644;2023-07-13T01:27:06;101497.72;;;14.38;100.00
52949;BME280;38812;50.942;3.644;2023-07-13T01:29:35;101509.16;;;14.39;100.00
52949;BME280;38812;50.942;3.644;2023-07-13T01:32:09;101504.88;;;14.33;100.00
52949;BME280;38812;50.942;3.644;2023-07-13T01:34:35;101505.94;;;14.28;100.00
52949;BME280;38812;50.942;3.644;2023-07-13T01:37:02;101507.00;;;14.21;100.00
52949;BME280;38812;50.942;3.644;2023-07-13T01:39:28;101502.69;;;14.17;100.00
52949;BME280;38812;50.942;3.644;2023-07-13T01:41:53;101511.44;;;14.19;100.00
52949;BME280;38812;50.942;3.644;2023-07-13T01:44:19;101510.72;;;14.12;100.00
52949;BME280;38812;50.942;3.644;2023-07-13T01:46:44;101488.13;;;14.00;100.00
52949;BME280;38812;50.942;3.644;2023-07-13T01:49:09;101511.78;;;14.06;100.00
52949;BME280;38812;50.942;3.644;2023-07-13T01:51:35;101477.84;;;13.88;100.00
52949;BME280;38812;50.942;3.644;2023-07-13T01:54:00;101498.16;;;13.86;100.00
52949;BME280;38812;50.942;3.644;2023-07-13T01:56:25;101503.38;;;13.89;100.00
52949;BME280;38812;50.942;3.644;2023-07-13T01:58:51;101502.50;;;13.89;100.00
52949;BME280;38812;50.942;3.644;2023-07-13T02:01:17;101511.28;;;13.89;100.00
52949;BME280;38812;50.942;3.644;2023-07-13T02:03:43;101507.75;;;13.90;100.00
52949;BME280;38812;50.942;3.644;2023-07-13T02:06:08;101501.78;;;13.82;100.00
52949;BME280;38812;50.942;3.644;2023-07-13T02:08:33;101495.69;;;13.80;100.00
52949;BME280;38812;50.942;3.644;2023-07-13T02:10:59;101500.97;;;13.80;100.00
52949;BME280;38812;50.942;3.644;2023-07-13T02:13:25;101513.94;;;13.89;100.00
52949;BME280;38812;50.942;3.644;2023-07-13T02:15:51;101495.84;;;13.72;100.00
52949;BME280;38812;50.942;3.644;2023-07-13T02:18:17;101503.53;;;13.83;100.00
52949;BME280;38812;50.942;3.644;2023-07-13T02:20:43;101511.31;;;13.88;100.00
52949;BME280;38812;50.942;3.644;2023-07-13T02:23:08;101506.19;;;13.83;100.00
52949;BME280;38812;50.942;3.644;2023-07-13T02:25:34;101493.19;;;13.74;100.00
52949;BME280;38812;50.942;3.644;2023-07-13T02:27:59;101505.34;;;13.81;100.00
52949;BME280;38812;50.942;3.644;2023-07-13T02:30:24;101505.44;;;13.77;100.00
52949;BME280;38812;50.942;3.644;2023-07-13T02:32:50;101494.19;;;13.68;100.00
52949;BME280;38812;50.942;3.644;2023-07-13T02:35:16;101503.66;;;13.77;100.00
52949;BME280;38812;50.942;3.644;2023-07-13T02:37:41;101479.44;;;13.60;100.00
52949;BME280;38812;50.942;3.644;2023-07-13T02:40:07;101511.66;;;13.74;100.00
52949;BME280;38812;50.942;3.644;2023-07-13T02:42:34;101501.28;;;13.66;100.00
52949;BME280;38812;50.942;3.644;2023-07-13T02:44:59;101512.69;;;13.67;100.00
52949;BME280;38812;50.942;3.644;2023-07-13T02:47:25;101505.69;;;13.66;100.00
52949;BME280;38812;50.942;3.644;2023-07-13T02:49:51;101498.00;;;13.57;100.00
52949;BME280;38812;50.942;3.644;2023-07-13T02:52:17;101504.03;;;13.62;100.00
52949;BME280;38812;50.942;3.644;2023-07-13T02:54:42;101490.13;;;13.54;100.00
52949;BME280;38812;50.942;3.644;2023-07-13T02:57:08;101505.84;;;13.60;100.00
52949;BME280;38812;50.942;3.644;2023-07-13T02:59:33;101500.50;;;13.63;100.00
52949;BME280;38812;50.942;3.644;2023-07-13T03:02:01;101500.56;;;13.60;100.00
52949;BME280;38812;50.942;3.644;2023-07-13T03:04:26;101508.31;;;13.66;100.00
52949;BME280;38812;50.942;3.644;2023-07-13T03:06:52;101514.59;;;13.62;100.00
52949;BME280;38812;50.942;3.644;2023-07-13T03:09:17;101497.16;;;13.55;100.00
52949;BME280;38812;50.942;3.644;2023-07-13T03:11:42;101509.22;;;13.65;100.00
52949;BME280;38812;50.942;3.644;2023-07-13T03:14:08;101505.53;;;13.72;100.00
52949;BME280;38812;50.942;3.644;2023-07-13T03:16:34;101515.25;;;13.71;100.00
52949;BME280;38812;50.942;3.644;2023-07-13T03:18:59;101516.84;;;13.79;100.00
52949;BME280;38812;50.942;3.644;2023-07-13T03:21:24;101505.41;;;13.78;100.00
52949;BME280;38812;50.942;3.644;2023-07-13T03:23:50;101525.19;;;13.97;100.00
52949;BME280;38812;50.942;3.644;2023-07-13T03:26:18;101506.63;;;14.00;100.00
52949;BME280;38812;50.942;3.644;2023-07-13T03:28:43;101527.44;;;14.13;100.00
52949;BME280;38812;50.942;3.644;2023-07-13T03:31:15;101513.47;;;14.07;100.00
52949;BME280;38812;50.942;3.644;2023-07-13T03:33:41;101523.78;;;14.18;100.00
52949;BME280;38812;50.942;3.644;2023-07-13T03:36:13;101525.50;;;14.21;100.00
52949;BME280;38812;50.942;3.644;2023-07-13T03:38:39;101531.56;;;14.24;100.00
52949;BME280;38812;50.942;3.644;2023-07-13T03:41:04;101537.69;;;14.26;100.00
52949;BME280;38812;50.942;3.644;2023-07-13T03:43:29;101530.63;;;14.27;100.00
52949;BME280;38812;50.942;3.644;2023-07-13T03:45:55;101547.34;;;14.27;100.00
52949;BME280;38812;50.942;3.644;2023-07-13T03:48:20;101528.81;;;14.29;100.00
52949;BME280;38812;50.942;3.644;2023-07-13T03:50:47;101537.66;;;14.28;100.00
52949;BME280;38812;50.942;3.644;2023-07-13T03:53:12;101521.13;;;14.20;100.00
52949;BME280;38812;50.942;3.644;2023-07-13T03:55:38;101545.50;;;14.29;100.00
52949;BME280;38812;50.942;3.644;2023-07-13T03:58:23;101543.69;;;14.31;100.00
52949;BME280;38812;50.942;3.644;2023-07-13T04:00:48;101546.38;;;14.30;100.00
52949;BME280;38812;50.942;3.644;2023-07-13T04:03:14;101533.38;;;14.22;100.00
52949;BME280;38812;50.942;3.644;2023-07-13T04:05:39;101535.81;;;14.30;100.00
52949;BME280;38812;50.942;3.644;2023-07-13T04:08:06;101520.22;;;14.21;100.00
52949;BME280;38812;50.942;3.644;2023-07-13T04:10:31;101534.25;;;14.23;100.00
52949;BME280;38812;50.942;3.644;2023-07-13T04:12:56;101552.34;;;14.38;100.00
52949;BME280;38812;50.942;3.644;2023-07-13T04:15:22;101545.38;;;14.35;100.00
52949;BME280;38812;50.942;3.644;2023-07-13T04:17:47;101530.63;;;14.27;100.00
52949;BME280;38812;50.942;3.644;2023-07-13T04:20:12;101550.53;;;14.40;100.00
52949;BME280;38812;50.942;3.644;2023-07-13T04:22:38;101546.16;;;14.39;100.00
52949;BME280;38812;50.942;3.644;2023-07-13T04:25:03;101554.00;;;14.44;100.00
52949;BME280;38812;50.942;3.644;2023-07-13T04:27:30;101561.72;;;14.51;100.00
52949;BME280;38812;50.942;3.644;2023-07-13T04:29:56;101575.72;;;14.56;100.00
52949;BME280;38812;50.942;3.644;2023-07-13T04:32:21;101566.00;;;14.57;100.00
52949;BME280;38812;50.942;3.644;2023-07-13T04:34:46;101561.72;;;14.51;100.00
52949;BME280;38812;50.942;3.644;2023-07-13T04:37:12;101577.34;;;14.62;100.00
52949;BME280;38812;50.942;3.644;2023-07-13T04:39:37;101577.22;;;14.66;100.00
52949;BME280;38812;50.942;3.644;2023-07-13T04:42:03;101570.94;;;14.70;100.00
52949;BME280;38812;50.942;3.644;2023-07-13T04:44:29;101580.66;;;14.70;100.00
52949;BME280;38812;50.942;3.644;2023-07-13T04:46:54;101578.88;;;14.70;100.00
52949;BME280;38812;50.942;3.644;2023-07-13T04:49:20;101569.25;;;14.68;100.00
52949;BME280;38812;50.942;3.644;2023-07-13T04:51:45;101555.13;;;14.69;100.00
52949;BME280;38812;50.942;3.644;2023-07-13T04:54:10;101594.34;;;14.86;100.00
52949;BME280;38812;50.942;3.644;2023-07-13T04:56:36;101577.44;;;14.91;100.00
52949;BME280;38812;50.942;3.644;2023-07-13T04:59:01;101574.00;;;14.88;100.00
52949;BME280;38812;50.942;3.644;2023-07-13T05:01:27;101559.28;;;14.78;100.00
52949;BME280;38812;50.942;3.644;2023-07-13T05:03:52;101579.84;;;14.99;100.00
52949;BME280;38812;50.942;3.644;2023-07-13T05:06:18;101560.78;;;14.88;100.00
52949;BME280;38812;50.942;3.644;2023-07-13T05:08:43;101559.03;;;14.87;100.00
52949;BME280;38812;50.942;3.644;2023-07-13T05:11:09;101592.00;;;15.06;100.00
52949;BME280;38812;50.942;3.644;2023-07-13T05:13:34;101585.84;;;15.05;100.00
52949;BME280;38812;50.942;3.644;2023-07-13T05:16:02;101571.91;;;14.99;100.00
52949;BME280;38812;50.942;3.644;2023-07-13T05:18:28;101590.16;;;15.09;100.00
52949;BME280;38812;50.942;3.644;2023-07-13T05:21:02;101582.00;;;15.16;100.00
52949;BME280;38812;50.942;3.644;2023-07-13T05:23:27;101601.88;;;15.32;100.00
52949;BME280;38812;50.942;3.644;2023-07-13T05:25:53;101589.53;;;15.31;100.00
52949;BME280;38812;50.942;3.644;2023-07-13T05:28:18;101603.44;;;15.37;100.00
52949;BME280;38812;50.942;3.644;2023-07-13T05:30:48;101596.28;;;15.41;100.00
52949;BME280;38812;50.942;3.644;2023-07-13T05:33:14;101602.19;;;15.51;100.00
52949;BME280;38812;50.942;3.644;2023-07-13T05:35:39;101599.53;;;15.51;100.00
52949;BME280;38812;50.942;3.644;2023-07-13T05:38:05;101607.22;;;15.60;100.00
52949;BME280;38812;50.942;3.644;2023-07-13T05:40:31;101608.94;;;15.62;100.00
52949;BME280;38812;50.942;3.644;2023-07-13T05:42:56;101594.00;;;15.60;100.00
52949;BME280;38812;50.942;3.644;2023-07-13T05:45:21;101614.91;;;15.69;100.00
52949;BME280;38812;50.942;3.644;2023-07-13T05:47:47;101594.00;;;15.60;100.00
52949;BME280;38812;50.942;3.644;2023-07-13T05:50:12;101611.13;;;15.77;100.00
52949;BME280;38812;50.942;3.644;2023-07-13T05:52:37;101609.16;;;15.84;100.00
52949;BME280;38812;50.942;3.644;2023-07-13T05:55:03;101624.69;;;15.96;100.00
52949;BME280;38812;50.942;3.644;2023-07-13T05:57:30;101618.38;;;16.00;100.00
52949;BME280;38812;50.942;3.644;2023-07-13T05:59:55;101620.91;;;16.03;100.00
52949;BME280;38812;50.942;3.644;2023-07-13T06:02:20;101622.41;;;16.12;100.00
52949;BME280;38812;50.942;3.644;2023-07-13T06:04:46;101612.91;;;16.05;100.00
52949;BME280;38812;50.942;3.644;2023-07-13T06:07:11;101625.94;;;16.13;100.00
52949;BME280;38812;50.942;3.644;2023-07-13T06:09:37;101623.16;;;16.17;100.00
52949;BME280;38812;50.942;3.644;2023-07-13T06:12:03;101632.69;;;16.23;100.00
52949;BME280;38812;50.942;3.644;2023-07-13T06:14:29;101613.41;;;16.18;100.00
52949;BME280;38812;50.942;3.644;2023-07-13T06:16:54;101629.78;;;16.30;100.00
52949;BME280;38812;50.942;3.644;2023-07-13T06:19:19;101649.66;;;16.45;100.00
52949;BME280;38812;50.942;3.644;2023-07-13T06:21:45;101643.16;;;16.54;100.00
52949;BME280;38812;50.942;3.644;2023-07-13T06:24:10;101656.81;;;16.69;100.00
52949;BME280;38812;50.942;3.644;2023-07-13T06:26:36;101657.72;;;16.68;100.00
52949;BME280;38812;50.942;3.644;2023-07-13T06:29:01;101647.22;;;16.65;100.00
52949;BME280;38812;50.942;3.644;2023-07-13T06:31:27;101665.91;;;16.89;100.00
52949;BME280;38812;50.942;3.644;2023-07-13T06:33:52;101640.91;;;16.94;100.00
52949;BME280;38812;50.942;3.644;2023-07-13T06:36:17;101645.91;;;17.28;100.00
52949;BME280;38812;50.942;3.644;2023-07-13T06:38:43;101657.84;;;17.65;100.00
52949;BME280;38812;50.942;3.644;2023-07-13T06:41:08;101650.34;;;17.76;100.00
52949;BME280;38812;50.942;3.644;2023-07-13T06:43:34;101652.75;;;18.05;100.00
52949;BME280;38812;50.942;3.644;2023-07-13T06:45:59;101648.47;;;18.23;100.00
52949;BME280;38812;50.942;3.644;2023-07-13T06:48:26;101656.03;;;18.34;100.00
52949;BME280;38812;50.942;3.644;2023-07-13T06:50:51;101644.09;;;18.44;100.00
52949;BME280;38812;50.942;3.644;2023-07-13T06:53:19;101658.69;;;18.77;100.00
52949;BME280;38812;50.942;3.644;2023-07-13T06:55:45;101662.25;;;18.98;100.00
52949;BME280;38812;50.942;3.644;2023-07-13T06:58:11;101664.78;;;19.01;100.00
52949;BME280;38812;50.942;3.644;2023-07-13T07:00:36;101668.44;;;18.99;100.00
52949;BME280;38812;50.942;3.644;2023-07-13T07:03:02;101659.38;;;19.03;100.00
52949;BME280;38812;50.942;3.644;2023-07-13T07:05:27;101653.25;;;19.01;100.00
52949;BME280;38812;50.942;3.644;2023-07-13T07:07:54;101648.84;;;18.58;100.00
52949;BME280;38812;50.942;3.644;2023-07-13T07:10:20;101657.53;;;19.05;100.00
52949;BME280;38812;50.942;3.644;2023-07-13T07:12:46;101666.63;;;19.20;100.00
52949;BME280;38812;50.942;3.644;2023-07-13T07:15:12;101651.53;;;19.20;100.00
52949;BME280;38812;50.942;3.644;2023-07-13T07:17:37;101668.19;;;19.05;100.00
52949;BME280;38812;50.942;3.644;2023-07-13T07:20:03;101662.00;;;19.64;100.00
52949;BME280;38812;50.942;3.644;2023-07-13T07:22:29;101665.22;;;19.51;100.00
52949;BME280;38812;50.942;3.644;2023-07-13T07:24:56;101659.13;;;20.06;100.00
52949;BME280;38812;50.942;3.644;2023-07-13T07:27:22;101661.44;;;19.76;100.00
52949;BME280;38812;50.942;3.644;2023-07-13T07:29:48;101659.34;;;20.01;100.00
52949;BME280;38812;50.942;3.644;2023-07-13T07:32:13;101643.53;;;20.15;100.00
52949;BME280;38812;50.942;3.644;2023-07-13T07:34:39;101660.13;;;20.41;100.00
52949;BME280;38812;50.942;3.644;2023-07-13T07:37:04;101670.53;;;20.81;100.00
52949;BME280;38812;50.942;3.644;2023-07-13T07:39:30;101671.19;;;20.86;100.00
52949;BME280;38812;50.942;3.644;2023-07-13T07:41:55;101675.06;;;20.62;100.00
52949;BME280;38812;50.942;3.644;2023-07-13T07:44:21;101660.34;;;20.72;100.00
52949;BME280;38812;50.942;3.644;2023-07-13T07:46:46;101664.19;;;20.84;100.00
52949;BME280;38812;50.942;3.644;2023-07-13T07:49:12;101675.72;;;20.84;100.00
52949;BME280;38812;50.942;3.644;2023-07-13T07:51:38;101677.16;;;20.92;100.00
52949;BME280;38812;50.942;3.644;2023-07-13T07:54:04;101664.59;;;20.94;100.00
52949;BME280;38812;50.942;3.644;2023-07-13T07:56:30;101667.25;;;21.11;100.00
52949;BME280;38812;50.942;3.644;2023-07-13T07:58:56;101657.81;;;21.04;100.00
52949;BME280;38812;50.942;3.644;2023-07-13T08:01:21;101660.56;;;21.37;100.00
52949;BME280;38812;50.942;3.644;2023-07-13T08:03:47;101672.47;;;21.64;100.00
52949;BME280;38812;50.942;3.644;2023-07-13T08:06:12;101645.59;;;21.00;100.00
52949;BME280;38812;50.942;3.644;2023-07-13T08:08:38;101653.66;;;20.64;100.00
52949;BME280;38812;50.942;3.644;2023-07-13T08:11:05;101652.56;;;20.85;100.00
52949;BME280;38812;50.942;3.644;2023-07-13T08:13:31;101672.03;;;21.04;100.00
52949;BME280;38812;50.942;3.644;2023-07-13T08:15:56;101665.53;;;21.10;100.00
52949;BME280;38812;50.942;3.644;2023-07-13T08:18:22;101672.28;;;21.17;100.00
52949;BME280;38812;50.942;3.644;2023-07-13T08:20:47;101657.16;;;21.50;100.00
52949;BME280;38812;50.942;3.644;2023-07-13T08:23:13;101666.28;;;21.79;100.00
52949;BME280;38812;50.942;3.644;2023-07-13T08:25:38;101665.06;;;21.19;100.00
52949;BME280;38812;50.942;3.644;2023-07-13T08:28:04;101652.41;;;21.23;100.00
52949;BME280;38812;50.942;3.644;2023-07-13T08:30:30;101669.72;;;21.81;100.00
52949;BME280;38812;50.942;3.644;2023-07-13T08:32:55;101674.22;;;21.81;100.00
52949;BME280;38812;50.942;3.644;2023-07-13T08:35:21;101671.66;;;21.29;100.00
52949;BME280;38812;50.942;3.644;2023-07-13T08:37:46;101678.84;;;21.62;100.00
52949;BME280;38812;50.942;3.644;2023-07-13T08:40:12;101674.69;;;22.20;100.00
52949;BME280;38812;50.942;3.644;2023-07-13T08:42:45;101670.25;;;21.88;100.00
52949;BME280;38812;50.942;3.644;2023-07-13T08:45:21;101676.84;;;22.14;100.00
52949;BME280;38812;50.942;3.644;2023-07-13T08:48:11;101673.09;;;21.85;100.00
52949;BME280;38812;50.942;3.644;2023-07-13T08:51:00;101665.16;;;21.50;100.00
52949;BME280;38812;50.942;3.644;2023-07-13T08:53:37;101663.28;;;22.94;100.00
52949;BME280;38812;50.942;3.644;2023-07-13T08:56:09;101666.00;;;23.52;100.00
52949;BME280;38812;50.942;3.644;2023-07-13T08:58:38;101674.41;;;23.61;100.00
52949;BME280;38812;50.942;3.644;2023-07-13T09:01:30;101673.41;;;23.33;95.14
52949;BME280;38812;50.942;3.644;2023-07-13T09:03:59;101671.41;;;22.77;100.00
52949;BME280;38812;50.942;3.644;2023-07-13T09:06:47;101683.56;;;23.28;100.00
52949;BME280;38812;50.942;3.644;2023-07-13T09:12:09;101678.06;;;24.43;90.96
52949;BME280;38812;50.942;3.644;2023-07-13T09:14:55;101672.13;;;25.05;86.29
52949;BME280;38812;50.942;3.644;2023-07-13T09:17:36;101669.38;;;25.70;82.19
52949;BME280;38812;50.942;3.644;2023-07-13T09:20:54;101668.94;;;25.25;79.24
52949;BME280;38812;50.942;3.644;2023-07-13T09:23:03;101663.75;;;25.47;76.09
52949;BME280;38812;50.942;3.644;2023-07-13T09:25:35;101677.75;;;25.78;72.73
52949;BME280;38812;50.942;3.644;2023-07-13T09:28:12;101669.34;;;25.95;66.94
52949;BME280;38812;50.942;3.644;2023-07-13T09:33:19;101669.25;;;25.46;73.71
52949;BME280;38812;50.942;3.644;2023-07-13T09:35:44;101668.84;;;25.65;70.46
52949;BME280;38812;50.942;3.644;2023-07-13T09:38:15;101670.19;;;25.83;67.15
52949;BME280;38812;50.942;3.644;2023-07-13T09:46:31;101681.09;;;25.43;67.37
52949;BME280;38812;50.942;3.644;2023-07-13T09:48:57;101673.44;;;25.50;66.10
52949;BME280;38812;50.942;3.644;2023-07-13T09:51:22;101681.13;;;24.37;71.73
52949;BME280;38812;50.942;3.644;2023-07-13T09:53:48;101679.13;;;24.80;71.53
52949;BME280;38812;50.942;3.644;2023-07-13T09:56:26;101682.38;;;24.85;70.72
52949;BME280;38812;50.942;3.644;2023-07-13T09:58:51;101678.28;;;24.92;66.52
52949;BME280;38812;50.942;3.644;2023-07-13T10:01:30;101684.84;;;25.28;67.72
52949;BME280;38812;50.942;3.644;2023-07-13T10:03:56;101685.81;;;25.78;67.30
52949;BME280;38812;50.942;3.644;2023-07-13T10:06:21;101687.00;;;25.23;69.98
52949;BME280;38812;50.942;3.644;2023-07-13T10:08:47;101680.03;;;25.33;66.74
52949;BME280;38812;50.942;3.644;2023-07-13T10:11:20;101671.06;;;25.96;65.41
52949;BME280;38812;50.942;3.644;2023-07-13T10:16:15;101684.34;;;25.74;62.60
52949;BME280;38812;50.942;3.644;2023-07-13T10:18:55;101683.97;;;25.40;62.48
52949;BME280;38812;50.942;3.644;2023-07-13T10:21:22;101679.94;;;26.09;61.34
52949;BME280;38812;50.942;3.644;2023-07-13T10:23:56;101682.81;;;26.32;60.38
52949;BME280;38812;50.942;3.644;2023-07-13T10:26:25;101691.69;;;26.08;59.76
52949;BME280;38812;50.942;3.644;2023-07-13T10:28:52;101684.84;;;26.41;59.74
52949;BME280;38812;50.942;3.644;2023-07-13T10:31:20;101687.88;;;26.23;60.22
52949;BME280;38812;50.942;3.644;2023-07-13T10:33:46;101683.50;;;26.10;61.02
52949;BME280;38812;50.942;3.644;2023-07-13T10:36:20;101687.00;;;25.86;60.53
52949;BME280;38812;50.942;3.644;2023-07-13T10:38:48;101693.38;;;26.35;60.74
52949;BME280;38812;50.942;3.644;2023-07-13T10:41:16;101683.47;;;25.73;61.26
52949;BME280;38812;50.942;3.644;2023-07-13T10:43:43;101693.06;;;25.65;63.22
52949;BME280;38812;50.942;3.644;2023-07-13T10:46:13;101687.00;;;25.48;61.23
52949;BME280;38812;50.942;3.644;2023-07-13T10:48:40;101704.44;;;25.30;62.03
52949;BME280;38812;50.942;3.644;2023-07-13T10:51:07;101717.50;;;24.14;63.82
52949;BME280;38812;50.942;3.644;2023-07-13T10:53:33;101741.09;;;21.81;84.97
52949;BME280;38812;50.942;3.644;2023-07-13T10:56:03;101764.56;;;20.52;100.00
52949;BME280;38812;50.942;3.644;2023-07-13T10:58:37;101781.06;;;19.83;100.00
52949;BME280;38812;50.942;3.644;2023-07-13T11:03:28;101773.06;;;18.57;100.00
52949;BME280;38812;50.942;3.644;2023-07-13T11:06:08;101784.66;;;18.33;100.00
52949;BME280;38812;50.942;3.644;2023-07-13T11:08:35;101776.63;;;18.11;100.00
52949;BME280;38812;50.942;3.644;2023-07-13T11:11:05;101781.66;;;18.19;100.00
52949;BME280;38812;50.942;3.644;2023-07-13T11:18:45;101766.19;;;19.37;100.00
52949;BME280;38812;50.942;3.644;2023-07-13T11:21:16;101769.94;;;19.74;100.00
52949;BME280;38812;50.942;3.644;2023-07-13T11:23:42;101761.53;;;19.83;100.00
52949;BME280;38812;50.942;3.644;2023-07-13T11:26:52;101753.94;;;20.13;100.00
52949;BME280;38812;50.942;3.644;2023-07-13T11:28:58;101753.78;;;20.16;100.00
52949;BME280;38812;50.942;3.644;2023-07-13T11:31:23;101759.78;;;20.21;100.00
52949;BME280;38812;50.942;3.644;2023-07-13T11:33:50;101753.66;;;20.38;100.00
52949;BME280;38812;50.942;3.644;2023-07-13T11:36:17;101742.84;;;20.96;100.00
52949;BME280;38812;50.942;3.644;2023-07-13T11:44:07;101746.28;;;21.67;100.00
52949;BME280;38812;50.942;3.644;2023-07-13T11:46:33;101744.56;;;21.66;100.00
52949;BME280;38812;50.942;3.644;2023-07-13T11:48:58;101739.72;;;22.22;100.00
52949;BME280;38812;50.942;3.644;2023-07-13T11:51:25;101742.66;;;22.65;100.00
52949;BME280;38812;50.942;3.644;2023-07-13T11:53:52;101741.88;;;22.79;100.00
52949;BME280;38812;50.942;3.644;2023-07-13T11:56:18;101742.13;;;23.64;100.00
52949;BME280;38812;50.942;3.644;2023-07-13T11:58:43;101744.34;;;23.57;100.00
52949;BME280;38812;50.942;3.644;2023-07-13T12:01:17;101745.03;;;23.89;100.00
52949;BME280;38812;50.942;3.644;2023-07-13T12:03:43;101743.41;;;24.01;100.00
52949;BME280;38812;50.942;3.644;2023-07-13T12:06:25;101736.91;;;24.60;100.00
52949;BME280;38812;50.942;3.644;2023-07-13T12:08:55;101730.16;;;24.41;100.00
52949;BME280;38812;50.942;3.644;2023-07-13T12:11:20;101728.16;;;24.02;100.00
52949;BME280;38812;50.942;3.644;2023-07-13T12:13:47;101730.84;;;23.15;100.00
52949;BME280;38812;50.942;3.644;2023-07-13T12:16:25;101732.31;;;23.05;100.00
52949;BME280;38812;50.942;3.644;2023-07-13T12:18:52;101734.06;;;23.20;100.00
52949;BME280;38812;50.942;3.644;2023-07-13T12:21:18;101726.34;;;23.60;100.00
52949;BME280;38812;50.942;3.644;2023-07-13T12:23:44;101729.59;;;24.07;100.00
52949;BME280;38812;50.942;3.644;2023-07-13T12:26:13;101714.78;;;24.70;97.45
52949;BME280;38812;50.942;3.644;2023-07-13T12:28:51;101721.78;;;24.45;95.41
52949;BME280;38812;50.942;3.644;2023-07-13T12:33:55;101719.81;;;23.19;97.66
52949;BME280;38812;50.942;3.644;2023-07-13T12:36:20;101716.78;;;23.25;100.00
52949;BME280;38812;50.942;3.644;2023-07-13T12:38:46;101713.22;;;23.98;99.54
52949;BME280;38812;50.942;3.644;2023-07-13T12:41:12;101703.31;;;24.68;91.93
52949;BME280;38812;50.942;3.644;2023-07-13T12:43:37;101704.59;;;24.75;86.26
52949;BME280;38812;50.942;3.644;2023-07-13T12:46:04;101702.72;;;24.21;86.51
52949;BME280;38812;50.942;3.644;2023-07-13T12:48:30;101703.44;;;23.68;93.65
52949;BME280;38812;50.942;3.644;2023-07-13T12:51:03;101702.56;;;23.96;89.04
52949;BME280;38812;50.942;3.644;2023-07-13T12:53:29;101702.28;;;24.56;82.52
52949;BME280;38812;50.942;3.644;2023-07-13T12:55:56;101699.53;;;24.43;69.56
52949;BME280;38812;50.942;3.644;2023-07-13T12:58:27;101699.38;;;24.04;71.57
52949;BME280;38812;50.942;3.644;2023-07-13T13:00:54;101703.50;;;24.38;63.74
52949;BME280;38812;50.942;3.644;2023-07-13T13:03:22;101705.78;;;24.30;64.23
52949;BME280;38812;50.942;3.644;2023-07-13T13:05:49;101699.13;;;25.16;65.13
52949;BME280;38812;50.942;3.644;2023-07-13T13:08:14;101702.25;;;25.35;60.96
52949;BME280;38812;50.942;3.644;2023-07-13T13:10:39;101711.28;;;25.09;61.93
52949;BME280;38812;50.942;3.644;2023-07-13T13:13:05;101706.69;;;25.36;64.09
52949;BME280;38812;50.942;3.644;2023-07-13T13:15:30;101699.31;;;24.73;65.44
52949;BME280;38812;50.942;3.644;2023-07-13T13:17:56;101706.03;;;24.53;68.40